weather.gov     
National Weather Service

Terminal Aerodrome Forecast
NWS Homepage
This page is being discontinued on March 12, 2014.
The same data is available at this site. Please update your bookmarks.
Thank you, and we apologize for the inconvenience.
Please send an email to SR-SRH.Webmaster@noaa.gov with any concerns.


Current Version
Previous Version:    01  02  03  04  05  06  07  08  09  10  11  12  13  14  15  16  17  18  19  20  21  22  23  24  25  26  27  28  29  30  
   31  32  33  34  35  36  37  38  39  40  41  
[Printable]
741
FTUS45 KBOU 221729
TAFAPA
TAF
KAPA 221729Z 2218/2318 29006KT P6SM SCT080 BKN120
     FM221900 33014G20KT P6SM VCSH SCT060 BKN070
     FM222000 34014G25KT P6SM VCSH SCT040 BKN070
      TEMPO 2221/2301 2SM -SHSN BKN040
     FM230500 34018G26KT P6SM SCT060 BKN090
     FM231000 33020G30KT P6SM SCT050 BKN070 PROB30 2310/2316 2SM -SN
      BLSN BKN030 OVC050=


741
FTUS45 KBOU 221729
TAFAPA
TAF
KAPA 221729Z 2218/2318 29006KT P6SM SCT080 BKN120
     FM221900 33014G20KT P6SM VCSH SCT060 BKN070
     FM222000 34014G25KT P6SM VCSH SCT040 BKN070
      TEMPO 2221/2301 2SM -SHSN BKN040
     FM230500 34018G26KT P6SM SCT060 BKN090
     FM231000 33020G30KT P6SM SCT050 BKN070 PROB30 2310/2316 2SM -SN
      BLSN BKN030 OVC050=




U.S. Dept. of Commerce
NOAA National Weather Service
1325 East West Highway
Silver Spring, MD 20910
E-mail: w-nws.webmaster@noaa.gov
Page last modified: May 16, 2007
NATIONAL WEATHER SERVICE: for Safety, for Work, for Fun - FOR LIFE